Time;durP1;ratioP1;P1;durP2;ratioP2;P2;SDS_P1;SDS_P2;PMS_P1;PMS_P2;Temp;Humidity;BMP_temperature;BMP_pressure;BME280_temperature;BME280_humidity;BME280_pressure;Samples;Min_cycle;Max_cycle;Signal;HPM_P1;HPM_P2
2022/01/12 00:00:22;;;;;;;;;64.00;47.50;;;;;3.68;66.96;103127.53;5054358;28;45763;-77
2022/01/12 00:02:48;;;;;;;;;66.25;51.25;;;;;3.70;67.16;103124.72;5050513;28;45490;-79
2022/01/12 00:05:16;;;;;;;;;66.50;46.50;;;;;3.72;67.08;103123.63;5033399;28;45766;-79
2022/01/12 00:07:41;;;;;;;;;67.25;46.50;;;;;3.70;66.69;103122.88;5034009;28;45550;-80
2022/01/12 00:10:07;;;;;;;;;68.00;47.75;;;;;3.74;66.33;103136.22;5018608;28;46452;-75
2022/01/12 00:12:33;;;;;;;;;56.50;45.00;;;;;3.77;66.00;103133.31;5034990;28;45470;-75
2022/01/12 00:14:59;;;;;;;;;63.25;47.75;;;;;3.77;65.93;103130.59;5035045;28;45654;-75
2022/01/12 00:17:24;;;;;;;;;64.50;44.75;;;;;3.79;66.50;103139.50;5053297;28;45722;-76
2022/01/12 00:19:49;;;;;;;;;57.75;45.00;;;;;3.83;67.12;103139.19;5053094;28;45589;-78
2022/01/12 00:22:15;;;;;;;;;71.25;49.00;;;;;3.88;65.57;103136.16;5031922;28;45670;-74
2022/01/12 00:25:12;;;;;;;;;63.25;46.50;;;;;3.91;65.88;103141.38;5054357;28;45699;-80
2022/01/12 00:35:33;;;;;;;;;58.25;45.75;;;;;3.82;66.94;103131.16;5052714;28;45476;-77
2022/01/12 00:37:58;;;;;;;;;60.00;48.25;;;;;3.80;65.29;103136.69;5052813;28;45680;-78
2022/01/12 00:40:24;;;;;;;;;63.00;47.75;;;;;3.75;66.20;103138.84;5034191;28;46909;-79
2022/01/12 00:42:49;;;;;;;;;67.50;47.50;;;;;3.75;66.88;103148.81;5052571;28;45835;-78
2022/01/12 00:45:17;;;;;;;;;61.00;48.50;;;;;3.69;65.53;103147.41;5052417;28;46122;-77
2022/01/12 00:47:42;;;;;;;;;66.25;47.75;;;;;3.69;66.71;103153.69;5052226;28;45693;-78
2022/01/12 00:50:08;;;;;;;;;61.25;46.50;;;;;3.66;66.77;103164.75;5052129;28;45242;-75
2022/01/12 00:52:33;;;;;;;;;60.75;47.00;;;;;3.72;65.94;103168.91;5052756;28;45682;-75
2022/01/12 00:54:59;;;;;;;;;65.00;48.50;;;;;3.73;66.05;103176.06;5052667;28;45639;-78
2022/01/12 00:57:25;;;;;;;;;63.25;47.75;;;;;3.74;67.06;103193.22;5052538;28;45401;-79
2022/01/12 00:59:50;;;;;;;;;54.75;41.00;;;;;3.74;66.97;103185.94;5053037;28;45732;-75
2022/01/12 01:02:15;;;;;;;;;65.75;50.25;;;;;3.72;67.15;103183.31;5053203;28;45446;-75
2022/01/12 01:04:41;;;;;;;;;66.00;48.50;;;;;3.74;66.68;103191.34;5032334;28;45830;-77
2022/01/12 01:07:06;;;;;;;;;73.50;47.50;;;;;3.75;67.43;103194.97;5031767;28;46107;-80
2022/01/12 01:09:34;;;;;;;;;65.75;50.25;;;;;3.81;66.38;103189.97;5030963;28;46078;-76
2022/01/12 01:12:00;;;;;;;;;63.50;47.75;;;;;3.88;65.93;103198.59;5033483;28;45492;-79
2022/01/12 01:15:00;;;;;;;;;67.25;44.50;;;;;3.86;66.41;103186.94;5035177;28;45404;-75
2022/01/12 01:25:32;;;;;;;;;58.50;44.00;;;;;4.05;65.81;103211.00;5035377;28;45482;-78
2022/01/12 01:27:59;;;;;;;;;69.00;48.00;;;;;4.11;64.85;103221.44;5036086;28;45821;-79
2022/01/12 01:30:25;;;;;;;;;60.50;44.75;;;;;4.15;66.29;103230.28;5034985;28;47066;-78
2022/01/12 01:32:50;;;;;;;;;54.50;41.75;;;;;4.19;65.18;103234.50;5035208;28;45423;-75
2022/01/12 01:35:18;;;;;;;;;63.75;47.25;;;;;4.25;65.29;103228.63;5021037;28;45619;-76
2022/01/12 01:37:43;;;;;;;;;63.00;48.00;;;;;4.27;65.39;103225.81;5056380;28;45351;-76
2022/01/12 01:40:11;;;;;;;;;66.25;46.00;;;;;4.29;65.75;103230.16;5055906;28;46230;-74
2022/01/12 01:43:09;;;;;;;;;64.75;49.50;;;;;4.29;65.51;103224.75;5055588;28;45709;-76
2022/01/12 01:53:51;;;;;;;;;59.25;42.25;;;;;4.08;64.30;103218.94;5052410;28;45726;-75
2022/01/12 01:56:19;;;;;;;;;60.25;42.25;;;;;4.07;64.26;103217.19;5052736;28;45783;-76
2022/01/12 01:58:45;;;;;;;;;68.75;48.25;;;;;4.04;64.35;103223.72;5047052;28;45754;-75
2022/01/12 02:01:11;;;;;;;;;59.25;41.75;;;;;4.03;64.44;103224.69;5052122;28;46676;-75
2022/01/12 02:03:36;;;;;;;;;55.00;41.75;;;;;4.03;65.30;103224.69;5041382;28;45636;-76
2022/01/12 02:06:07;;;;;;;;;60.50;47.25;;;;;4.00;64.93;103219.47;5032468;28;45525;-75
2022/01/12 02:08:32;;;;;;;;;58.75;43.25;;;;;4.00;65.38;103224.91;5031126;28;45545;-75
2022/01/12 02:11:00;;;;;;;;;55.50;41.25;;;;;4.04;65.15;103248.16;5013183;28;45754;-75
2022/01/12 02:13:26;;;;;;;;;60.00;46.75;;;;;4.05;65.41;103258.03;5032230;28;45764;-77
2022/01/12 02:15:54;;;;;;;;;52.00;41.25;;;;;4.06;65.26;103254.34;5033257;28;45877;-80
2022/01/12 02:40:25;;;;;;;;;53.25;42.25;;;;;3.91;65.48;103187.53;5030349;28;45812;-76
2022/01/12 02:51:08;;;;;;;;;64.75;46.00;;;;;3.94;66.08;103184.59;5054079;28;45426;-76
2022/01/12 02:53:43;;;;;;;;;63.75;46.50;;;;;3.93;66.07;103174.69;5054073;28;46172;-75
2022/01/12 02:56:10;;;;;;;;;69.00;48.75;;;;;3.89;65.12;103173.16;5054793;28;45552;-75
2022/01/12 02:58:37;;;;;;;;;59.75;43.25;;;;;3.85;65.16;103177.94;5054837;28;45900;-75
2022/01/12 03:03:51;;;;;;;;;62.50;46.75;;;;;3.86;66.40;103195.97;5054807;28;45726;-75
2022/01/12 03:06:20;;;;;;;;;57.75;43.25;;;;;3.86;65.90;103195.09;5055258;28;45482;-75
2022/01/12 03:08:47;;;;;;;;;67.00;48.25;;;;;3.85;65.17;103215.94;5055790;28;45438;-76
2022/01/12 03:11:15;;;;;;;;;66.75;45.00;;;;;3.83;66.28;103215.19;5055322;28;45625;-76
2022/01/12 03:13:41;;;;;;;;;60.00;45.50;;;;;3.82;66.07;103226.16;5054740;28;45512;-77
2022/01/12 03:16:13;;;;;;;;;51.00;39.50;;;;;3.77;65.19;103223.72;5054076;28;45288;-76
2022/01/12 03:18:41;;;;;;;;;63.00;42.00;;;;;3.69;65.66;103209.81;5039146;28;45391;-76
2022/01/12 03:21:06;;;;;;;;;69.00;49.50;;;;;3.69;66.30;103224.25;5038824;28;46029;-75
2022/01/12 03:23:32;;;;;;;;;65.00;46.00;;;;;3.70;65.64;103223.28;5044805;28;45487;-75
2022/01/12 03:25:58;;;;;;;;;62.00;47.25;;;;;3.67;65.93;103215.34;5043692;28;45351;-76
2022/01/12 03:28:24;;;;;;;;;59.00;40.25;;;;;3.67;65.47;103214.47;5044127;28;45117;-75
2022/01/12 03:31:05;;;;;;;;;61.75;46.75;;;;;3.66;67.11;103205.44;5039585;28;45558;-74
2022/01/12 03:38:43;;;;;;;;;60.25;46.25;;;;;3.70;66.93;103214.28;5033866;28;45914;-75
2022/01/12 03:41:09;;;;;;;;;60.25;45.75;;;;;3.70;65.83;103212.41;5009029;28;46133;-76
2022/01/12 03:43:34;;;;;;;;;68.00;48.50;;;;;3.74;65.96;103206.78;5033692;28;45410;-75
2022/01/12 03:46:00;;;;;;;;;65.00;45.75;;;;;3.76;66.84;103213.88;5033529;28;45746;-75
2022/01/12 03:48:25;;;;;;;;;59.50;46.00;;;;;3.75;66.80;103212.09;5033380;28;45752;-75
2022/01/12 03:50:51;;;;;;;;;62.25;47.50;;;;;3.73;65.45;103227.63;5033070;28;45556;-77
2022/01/12 03:53:16;;;;;;;;;59.25;42.25;;;;;3.74;66.37;103233.94;5033232;28;45679;-77
2022/01/12 03:55:43;;;;;;;;;66.50;47.75;;;;;3.71;66.12;103235.88;5048627;28;45506;-78
2022/01/12 03:58:10;;;;;;;;;66.00;46.50;;;;;3.74;66.74;103256.50;5036882;28;45404;-78
2022/01/12 04:00:36;;;;;;;;;69.25;50.75;;;;;3.71;65.97;103243.13;5053577;28;45671;-78
2022/01/12 04:03:04;;;;;;;;;67.75;45.50;;;;;3.77;66.08;103245.44;5053169;28;45539;-78
2022/01/12 04:08:18;;;;;;;;;59.00;43.00;;;;;3.76;66.07;103264.53;5052471;28;45540;-77
2022/01/12 04:08:21;;;;;;;;;60.00;45.25;;;;;3.70;67.03;103258.56;5053613;28;45456;-78
2022/01/12 04:10:53;;;;;;;;;62.00;46.50;;;;;3.74;66.69;103252.94;5053593;28;45494;-79
2022/01/12 04:13:24;;;;;;;;;65.75;46.25;;;;;3.83;66.83;103268.59;5035164;28;46778;-78
2022/01/12 04:15:52;;;;;;;;;65.25;47.25;;;;;3.86;66.48;103291.00;5052404;28;45359;-79
2022/01/12 04:18:18;;;;;;;;;66.75;44.25;;;;;3.89;66.35;103282.66;5052276;28;45726;-77
2022/01/12 04:20:46;;;;;;;;;70.00;48.25;;;;;3.91;66.29;103289.78;5050576;28;45541;-77
2022/01/12 04:23:17;;;;;;;;;63.75;46.25;;;;;3.97;65.45;103301.13;5052745;28;46196;-78
2022/01/12 04:25:51;;;;;;;;;67.00;46.00;;;;;3.98;66.54;103296.56;5052464;28;45727;-78
2022/01/12 04:28:18;;;;;;;;;61.50;45.00;;;;;4.04;65.64;103302.47;5052816;28;45450;-77
2022/01/12 04:30:45;;;;;;;;;57.00;40.25;;;;;4.05;65.39;103308.75;5052605;28;46356;-76
2022/01/12 04:33:10;;;;;;;;;60.50;45.00;;;;;4.05;65.87;103293.34;5034317;28;48311;-75
2022/01/12 04:35:44;;;;;;;;;59.25;42.50;;;;;4.04;64.95;103297.03;5052989;28;45727;-75
2022/01/12 04:38:10;;;;;;;;;67.25;44.75;;;;;3.98;64.94;103305.59;5052488;28;45838;-76
2022/01/12 04:40:35;;;;;;;;;58.00;43.00;;;;;4.00;65.50;103314.50;5051567;28;45757;-76
2022/01/12 04:43:01;;;;;;;;;63.75;42.25;;;;;4.01;66.13;103312.66;5053695;28;45481;-76
2022/01/12 04:45:40;;;;;;;;;66.50;45.25;;;;;3.88;65.04;103280.03;5052402;28;45798;-74
2022/01/12 04:50:42;;;;;;;;;51.75;41.25;;;;;4.08;65.54;103308.56;5052285;28;45499;-71
2022/01/12 04:53:09;;;;;;;;;58.25;44.00;;;;;4.00;64.24;103297.34;5052337;28;45860;-72
2022/01/12 04:55:35;;;;;;;;;59.50;42.25;;;;;4.10;64.39;103322.03;5051959;28;45725;-71
2022/01/12 04:58:00;;;;;;;;;55.50;41.25;;;;;4.11;65.13;103308.34;5052108;28;45973;-77
2022/01/12 05:00:27;;;;;;;;;56.25;41.25;;;;;4.16;64.19;103305.31;5052654;28;45470;-75
2022/01/12 05:08:37;;;;;;;;;60.00;43.00;;;;;4.26;63.44;103319.16;5051688;28;45416;-77
2022/01/12 05:13:51;;;;;;;;;57.50;39.00;;;;;4.30;63.79;103320.72;5052144;28;45734;-77
2022/01/12 05:16:18;;;;;;;;;52.25;39.00;;;;;4.36;64.04;103317.56;5052282;28;45706;-78
2022/01/12 05:18:45;;;;;;;;;55.00;41.00;;;;;4.39;63.76;103310.06;5052157;28;45786;-79
2022/01/12 05:21:12;;;;;;;;;52.00;39.75;;;;;4.36;63.97;103302.13;5048386;28;45567;-78
2022/01/12 05:23:38;;;;;;;;;74.75;53.75;;;;;4.45;63.13;103300.63;5042197;28;46111;-78
2022/01/12 05:26:05;;;;;;;;;56.00;40.75;;;;;4.42;63.81;103293.56;5032057;28;45764;-79
2022/01/12 05:28:31;;;;;;;;;52.25;38.25;;;;;4.43;63.47;103288.97;5044279;28;45672;-79
2022/01/12 05:30:57;;;;;;;;;53.50;41.00;;;;;4.41;64.55;103293.66;5045432;28;45922;-78
2022/01/12 05:33:25;;;;;;;;;61.00;44.50;;;;;4.39;64.98;103288.34;5046233;28;45932;-78
2022/01/12 05:35:55;;;;;;;;;56.75;43.50;;;;;4.42;64.37;103298.13;5052597;28;46011;-79
2022/01/12 05:38:22;;;;;;;;;55.75;40.50;;;;;4.39;64.32;103296.47;5053351;28;45691;-78
2022/01/12 05:40:59;;;;;;;;;57.50;41.00;;;;;4.49;63.77;103301.28;5053664;28;45394;-80
2022/01/12 05:43:28;;;;;;;;;57.25;42.00;;;;;4.49;62.96;103293.13;5043174;28;45885;-79
2022/01/12 05:45:55;;;;;;;;;59.00;42.25;;;;;4.49;63.49;103291.31;5052145;28;45638;-79
2022/01/12 05:50:49;;;;;;;;;62.25;44.50;;;;;4.38;64.27;103278.44;5048631;28;45937;-79
2022/01/12 05:53:16;;;;;;;;;56.00;42.00;;;;;4.41;64.16;103289.09;5050177;28;47145;-78
2022/01/12 05:55:42;;;;;;;;;55.75;41.00;;;;;4.52;63.90;103311.94;5048818;28;45881;-79
2022/01/12 05:58:07;;;;;;;;;57.50;40.75;;;;;4.51;62.92;103307.50;5031048;28;45745;-80
2022/01/12 06:00:33;;;;;;;;;54.25;39.75;;;;;4.49;63.46;103301.28;5048287;28;46132;-76
2022/01/12 06:02:58;;;;;;;;;56.50;42.50;;;;;4.57;64.80;103305.22;5047091;28;47089;-78
2022/01/12 06:05:24;;;;;;;;;58.50;44.25;;;;;4.61;64.17;103319.47;5049083;28;45767;-76
2022/01/12 06:07:51;;;;;;;;;60.25;41.75;;;;;4.67;63.46;103310.91;5045305;28;45693;-76
2022/01/12 06:10:18;;;;;;;;;60.00;41.75;;;;;4.66;62.30;103297.41;5043178;28;45803;-79
2022/01/12 06:12:46;;;;;;;;;56.75;42.00;;;;;4.67;62.47;103305.47;5047071;28;45700;-78
2022/01/12 06:15:14;;;;;;;;;55.50;44.00;;;;;4.67;62.81;103304.56;5048469;28;45502;-80
2022/01/12 06:17:40;;;;;;;;;53.50;40.00;;;;;4.69;62.79;103306.22;5033244;28;46045;-79
2022/01/12 06:20:06;;;;;;;;;56.25;38.25;;;;;4.69;63.44;103300.78;5049331;28;45558;-78
2022/01/12 06:22:32;;;;;;;;;55.50;39.50;;;;;4.69;62.34;103300.78;5047406;28;48682;-80
2022/01/12 06:24:59;;;;;;;;;47.25;38.50;;;;;4.66;62.29;103298.28;5032053;28;45987;-77
2022/01/12 06:27:30;;;;;;;;;57.25;42.50;;;;;4.72;62.53;103303.28;5046039;28;45612;-81
2022/01/12 06:32:32;;;;;;;;;58.00;41.00;;;;;4.68;63.31;103306.31;5046513;28;46227;-79
2022/01/12 06:34:57;;;;;;;;;66.75;44.00;;;;;4.70;64.17;103307.06;5050425;28;45494;-76
2022/01/12 06:37:23;;;;;;;;;61.00;44.25;;;;;4.73;63.80;103315.91;5025212;28;45993;-77
2022/01/12 06:39:50;;;;;;;;;80.75;57.00;;;;;4.78;63.98;103321.03;5047714;28;45707;-76
2022/01/12 06:42:15;;;;;;;;;60.75;44.25;;;;;4.78;63.42;103319.16;5049724;28;46178;-75
2022/01/12 06:44:41;;;;;;;;;53.25;40.50;;;;;4.84;63.44;103336.03;5047434;28;46343;-77
2022/01/12 06:47:07;;;;;;;;;57.75;42.00;;;;;4.83;63.80;103328.84;5042744;28;45797;-76
2022/01/12 06:49:32;;;;;;;;;63.75;42.25;;;;;4.84;63.56;103319.72;5039557;28;46571;-78
2022/01/12 06:52:00;;;;;;;;;57.00;42.25;;;;;4.90;62.91;103327.44;5031570;28;45992;-78
2022/01/12 06:54:26;;;;;;;;;62.25;45.75;;;;;4.92;63.26;103320.91;5037404;28;45740;-80
2022/01/12 06:56:51;;;;;;;;;64.50;45.75;;;;;4.92;62.83;103326.34;5034098;28;45539;-78
2022/01/12 06:59:17;;;;;;;;;61.00;45.25;;;;;4.89;62.22;103322.97;5053008;28;45398;-77
2022/01/12 07:01:44;;;;;;;;;57.00;41.50;;;;;4.86;62.73;103329.50;5017728;28;45376;-78
2022/01/12 07:04:09;;;;;;;;;60.25;42.75;;;;;4.82;61.79;103322.56;5051788;28;45465;-80
2022/01/12 07:06:35;;;;;;;;;55.75;38.25;;;;;4.71;63.11;103316.97;5029774;28;45681;-73
2022/01/12 07:09:01;;;;;;;;;60.75;43.00;;;;;4.73;62.83;103320.44;5051260;28;45893;-74
2022/01/12 07:11:26;;;;;;;;;54.75;41.50;;;;;4.71;63.64;103323.28;5031920;28;47148;-75
2022/01/12 07:13:52;;;;;;;;;60.25;44.00;;;;;4.71;63.45;103315.13;5047143;28;45442;-72
2022/01/12 07:16:17;;;;;;;;;56.50;40.75;;;;;4.71;63.47;103312.41;5031186;28;45581;-72
2022/01/12 07:18:43;;;;;;;;;66.00;48.75;;;;;4.70;63.44;103301.63;5038987;28;45960;-70
2022/01/12 07:21:08;;;;;;;;;59.75;42.25;;;;;4.66;63.58;103301.00;5039720;28;46078;-71
2022/01/12 07:23:35;;;;;;;;;66.00;44.50;;;;;4.72;62.88;103302.41;5030405;28;45829;-72
2022/01/12 07:26:00;;;;;;;;;64.50;45.00;;;;;4.73;62.96;103313.19;5023429;28;45780;-71
2022/01/12 07:28:26;;;;;;;;;68.00;46.00;;;;;4.75;63.31;103322.09;5054998;28;45670;-72
2022/01/12 07:30:51;;;;;;;;;58.00;44.75;;;;;4.80;62.62;103320.91;5054786;28;46320;-70
2022/01/12 07:33:17;;;;;;;;;63.75;45.50;;;;;4.84;63.06;103333.31;5038693;28;45764;-71
2022/01/12 07:35:43;;;;;;;;;67.25;43.75;;;;;4.83;62.90;103332.44;5030206;28;45600;-72
2022/01/12 07:38:09;;;;;;;;;64.75;43.25;;;;;4.78;63.16;103349.06;5039419;28;45874;-77
2022/01/12 07:40:35;;;;;;;;;64.25;44.50;;;;;4.84;63.64;103344.19;5024980;28;48038;-72
2022/01/12 07:43:06;;;;;;;;;56.50;45.00;;;;;4.88;62.98;103338.44;5035640;28;45498;-74
2022/01/12 07:45:33;;;;;;;;;60.25;43.50;;;;;4.92;62.36;103342.66;5028142;28;45431;-72
2022/01/12 07:47:59;;;;;;;;;63.00;47.50;;;;;4.93;62.57;103354.44;5031583;28;45941;-73
2022/01/12 07:50:24;;;;;;;;;61.50;44.25;;;;;4.99;62.16;103364.00;5034775;28;45732;-73
2022/01/12 07:52:53;;;;;;;;;53.00;38.25;;;;;5.01;62.76;103362.03;5043536;28;46006;-77
2022/01/12 07:55:22;;;;;;;;;62.50;44.25;;;;;4.93;62.98;103349.00;5049558;28;45612;-71
2022/01/12 07:57:49;;;;;;;;;55.50;38.50;;;;;5.07;62.96;103367.91;5040966;28;45494;-72
2022/01/12 08:00:16;;;;;;;;;57.75;41.75;;;;;5.15;64.32;103380.09;5048107;28;46821;-72
2022/01/12 08:02:41;;;;;;;;;60.25;44.75;;;;;5.23;64.24;103384.03;5032264;28;45985;-71
2022/01/12 08:05:07;;;;;;;;;63.00;44.25;;;;;5.26;62.79;103391.13;5028417;28;45474;-71
2022/01/12 08:07:36;;;;;;;;;58.50;44.25;;;;;5.33;63.85;103405.13;5047979;28;46682;-72
2022/01/12 08:10:03;;;;;;;;;63.75;45.75;;;;;5.34;62.01;103406.91;5049080;28;46152;-71
2022/01/12 08:13:07;;;;;;;;;61.50;43.50;;;;;5.40;64.22;103406.44;5050498;28;45462;-83
2022/01/12 08:15:32;;;;;;;;;63.50;44.75;;;;;5.42;62.07;103410.81;5038150;28;45532;-72
2022/01/12 08:17:57;;;;;;;;;62.00;46.50;;;;;5.40;63.29;103399.16;5026703;28;45727;-71
2022/01/12 08:20:26;;;;;;;;;51.75;42.50;;;;;5.48;62.49;103418.53;5029391;28;46125;-76
2022/01/12 08:22:52;;;;;;;;;60.00;45.00;;;;;5.51;62.36;103428.34;5036882;28;45605;-75
2022/01/12 08:25:17;;;;;;;;;65.75;44.00;;;;;5.40;61.68;103410.03;5027795;28;45577;-76
2022/01/12 08:27:43;;;;;;;;;66.50;47.25;;;;;5.59;61.83;103434.09;5030259;28;45951;-76
2022/01/12 08:30:16;;;;;;;;;54.25;44.25;;;;;5.64;61.48;103423.78;5048519;28;45637;-76
2022/01/12 08:32:46;;;;;;;;;60.25;42.00;;;;;5.68;61.56;103438.03;5050048;28;45751;-75
2022/01/12 08:35:12;;;;;;;;;59.75;42.50;;;;;5.74;62.11;103444.88;5042460;28;45808;-71
2022/01/12 08:37:41;;;;;;;;;62.00;42.50;;;;;5.79;62.00;103454.47;5037718;28;45451;-79
2022/01/12 08:40:07;;;;;;;;;53.00;39.50;;;;;5.87;61.65;103448.47;5053328;28;45762;-73
2022/01/12 08:42:33;;;;;;;;;55.25;40.50;;;;;5.93;61.14;103444.44;5047182;28;45500;-73
2022/01/12 08:45:00;;;;;;;;;55.75;39.75;;;;;6.02;62.02;103438.34;5050846;28;45510;-74
2022/01/12 08:47:26;;;;;;;;;61.50;47.50;;;;;6.14;63.11;103440.16;5050793;28;45817;-75
2022/01/12 08:49:52;;;;;;;;;57.00;41.75;;;;;6.30;61.02;103441.75;5030500;28;45874;-74
2022/01/12 08:52:17;;;;;;;;;55.25;41.00;;;;;6.37;60.53;103443.03;5032102;28;45728;-75
2022/01/12 08:54:43;;;;;;;;;53.00;42.00;;;;;6.46;60.98;103441.47;5029694;28;45624;-74
2022/01/12 08:57:09;;;;;;;;;60.75;43.00;;;;;6.58;59.95;103445.13;5047214;28;45916;-74
2022/01/12 08:59:34;;;;;;;;;61.75;44.25;;;;;6.69;60.01;103445.19;5048860;28;45817;-75
2022/01/12 09:02:00;;;;;;;;;55.75;43.50;;;;;6.74;59.70;103448.44;5047485;28;45743;-74
2022/01/12 09:04:27;;;;;;;;;56.75;43.50;;;;;6.82;59.25;103445.97;5047181;28;45743;-73
2022/01/12 09:06:53;;;;;;;;;57.25;44.50;;;;;6.95;59.42;103447.78;5052155;28;45488;-74
2022/01/12 09:09:18;;;;;;;;;57.00;42.25;;;;;7.09;60.17;103463.09;5051095;28;45819;-72
2022/01/12 09:11:44;;;;;;;;;45.00;36.50;;;;;7.12;59.53;103458.25;5048182;28;45715;-73
2022/01/12 09:14:09;;;;;;;;;57.25;43.25;;;;;7.17;57.78;103461.50;5034316;28;45389;-72
2022/01/12 09:16:35;;;;;;;;;57.50;43.50;;;;;7.28;58.59;103473.47;5048187;28;45856;-71
2022/01/12 09:19:00;;;;;;;;;58.50;41.75;;;;;7.37;59.08;103494.56;5049108;28;46978;-72
2022/01/12 09:21:28;;;;;;;;;47.00;34.25;;;;;7.40;57.67;103489.72;5052443;28;45812;-73
2022/01/12 09:23:53;;;;;;;;;55.25;41.50;;;;;7.41;57.03;103507.00;5047514;28;45825;-74
2022/01/12 09:26:18;;;;;;;;;58.75;43.00;;;;;7.28;58.49;103511.66;5052568;28;45559;-74
2022/01/12 09:28:45;;;;;;;;;56.75;43.50;;;;;7.24;59.21;103508.28;5052684;28;46330;-76
2022/01/12 09:31:11;;;;;;;;;53.75;43.25;;;;;7.20;57.64;103506.78;5030394;28;45485;-74
2022/01/12 09:33:37;;;;;;;;;55.50;43.50;;;;;7.22;58.85;103516.59;5028356;28;45430;-75
2022/01/12 09:36:03;;;;;;;;;57.75;43.25;;;;;7.17;57.18;103510.63;5039235;28;45533;-75
2022/01/12 09:38:29;;;;;;;;;55.75;43.25;;;;;7.12;58.73;103518.28;5032621;28;46117;-79
2022/01/12 09:40:54;;;;;;;;;56.50;44.50;;;;;7.12;58.13;103525.63;5043927;28;45738;-75
2022/01/12 09:43:24;;;;;;;;;57.00;42.00;;;;;7.07;57.66;103531.44;5053412;28;45411;-79
2022/01/12 09:45:51;;;;;;;;;57.25;44.25;;;;;6.92;57.35;103522.56;5034626;28;46379;-75
2022/01/12 09:48:20;;;;;;;;;53.00;40.25;;;;;6.87;57.62;103513.81;5051907;28;45710;-75
2022/01/12 09:50:45;;;;;;;;;53.50;40.50;;;;;6.96;57.82;103534.09;5048135;28;45560;-77
2022/01/12 09:53:11;;;;;;;;;60.25;45.50;;;;;6.89;57.62;103534.56;5035184;28;45587;-82
2022/01/12 09:55:36;;;;;;;;;57.25;43.50;;;;;6.83;58.53;103523.25;5051149;28;45411;-77
2022/01/12 09:58:02;;;;;;;;;58.50;44.50;;;;;6.93;57.26;103531.59;5053238;28;46022;-79
2022/01/12 10:00:28;;;;;;;;;51.75;39.00;;;;;6.97;57.26;103535.84;5040615;28;45600;-76
2022/01/12 10:02:55;;;;;;;;;56.50;43.75;;;;;7.08;56.94;103530.44;5039577;28;45597;-75
2022/01/12 10:05:29;;;;;;;;;53.75;42.25;;;;;7.19;58.21;103527.75;5046327;28;45975;-75
2022/01/12 10:07:54;;;;;;;;;53.75;41.25;;;;;7.37;57.84;103544.56;5042766;28;46296;-76
2022/01/12 10:10:20;;;;;;;;;52.50;39.75;;;;;7.41;57.59;103539.75;5048879;28;45635;-76
2022/01/12 10:12:53;;;;;;;;;58.00;43.00;;;;;7.65;56.78;103550.63;5050254;28;45928;-76
2022/01/12 10:15:19;;;;;;;;;58.75;43.25;;;;;7.82;57.49;103546.56;5051557;28;45845;-76
2022/01/12 10:17:46;;;;;;;;;50.50;38.50;;;;;7.91;55.82;103532.16;5051124;28;45510;-79
2022/01/12 10:20:17;;;;;;;;;54.50;41.25;;;;;8.07;54.85;103542.75;5025973;28;45487;-77
2022/01/12 10:22:55;;;;;;;;;63.25;45.50;;;;;8.18;55.22;103538.28;5052851;28;45724;-78
2022/01/12 10:25:22;;;;;;;;;62.25;46.50;;;;;8.31;55.37;103541.75;5050276;28;47005;-78
2022/01/12 10:27:48;;;;;;;;;57.25;43.75;;;;;8.42;54.27;103538.13;5034415;28;47049;-78
2022/01/12 10:30:30;;;;;;;;;61.50;44.50;;;;;8.46;53.67;103523.25;5050766;28;45547;-77
2022/01/12 10:33:06;;;;;;;;;51.00;42.00;;;;;8.66;53.00;103551.69;5048296;28;45655;-77
2022/01/12 10:35:39;;;;;;;;;62.25;47.50;;;;;8.70;53.68;103533.13;5048393;28;45618;-80
2022/01/12 10:38:11;;;;;;;;;55.25;43.25;;;;;8.84;53.25;103535.59;5053271;28;45582;-82
2022/01/12 10:40:53;;;;;;;;;59.25;45.75;;;;;9.00;53.22;103541.53;5044309;28;45621;-79
2022/01/12 10:43:34;;;;;;;;;54.00;41.50;;;;;9.15;52.67;103539.34;5024462;28;45549;-80
2022/01/12 10:46:11;;;;;;;;;57.25;44.25;;;;;9.28;52.35;103533.72;5031817;28;45737;-77
2022/01/12 10:48:56;;;;;;;;;57.25;45.25;;;;;9.39;52.01;103534.66;5025019;28;46294;-76
2022/01/12 10:51:28;;;;;;;;;59.25;46.75;;;;;9.54;51.74;103533.34;5043429;28;46019;-79
2022/01/12 10:53:59;;;;;;;;;60.50;47.00;;;;;9.59;51.39;103519.22;5050572;28;45875;-79
2022/01/12 10:56:25;;;;;;;;;60.75;44.00;;;;;9.78;50.80;103537.69;5047949;28;45511;-81
2022/01/12 10:58:55;;;;;;;;;59.50;44.00;;;;;9.89;50.84;103530.25;5045386;28;46081;-79
2022/01/12 11:01:23;;;;;;;;;61.25;44.25;;;;;10.06;49.63;103542.44;5050420;28;46019;-79
2022/01/12 11:04:00;;;;;;;;;58.00;45.75;;;;;10.07;50.01;103533.22;5052968;28;45472;-81
2022/01/12 11:06:27;;;;;;;;;62.50;46.00;;;;;10.21;49.57;103533.88;5035302;28;47288;-79
2022/01/12 11:08:55;;;;;;;;;55.75;43.50;;;;;10.22;49.87;103539.22;5051796;28;46105;-77
2022/01/12 11:11:26;;;;;;;;;53.50;41.75;;;;;10.22;49.02;103525.50;5050551;28;45614;-76
2022/01/12 11:14:22;;;;;;;;;57.00;44.75;;;;;10.34;49.70;103540.00;5051539;28;45624;-79
2022/01/12 11:16:57;;;;;;;;;62.00;45.50;;;;;10.24;49.71;103515.25;5035036;28;46918;-79
2022/01/12 11:23:16;;;;;;;;;58.00;46.50;;;;;10.34;48.81;103536.38;4988768;28;45869;-79
2022/01/12 11:25:58;;;;;;;;;63.75;46.75;;;;;10.32;49.38;103544.72;5046850;28;45977;-78
2022/01/12 11:28:42;;;;;;;;;58.50;45.25;;;;;10.34;48.74;103539.13;5045158;28;45588;-78
2022/01/12 11:31:40;;;;;;;;;55.25;42.00;;;;;10.23;49.45;103523.63;5042922;28;45838;-79
2022/01/12 11:34:58;;;;;;;;;59.00;47.50;;;;;10.41;49.37;103543.91;5041627;28;45402;-79
2022/01/12 11:37:59;;;;;;;;;;;;;;;;;;;;;
2022/01/12 11:40:33;;;;;;;;;60.00;47.25;;;;;10.29;49.07;103534.03;4974864;28;73990;-74
2022/01/12 11:42:58;;;;;;;;;54.75;43.75;;;;;10.21;48.84;103520.16;4989184;28;46647;-78
2022/01/12 11:45:44;;;;;;;;;56.00;43.50;;;;;10.24;49.65;103520.72;4975574;28;45643;-79
2022/01/12 11:48:52;;;;;;;;;63.50;46.50;;;;;9.96;49.71;103491.31;4971598;28;46061;-79
2022/01/12 11:51:34;;;;;;;;;55.25;45.00;;;;;10.12;49.54;103507.25;4989447;28;45628;-77
2022/01/12 11:54:20;;;;;;;;;58.75;47.25;;;;;10.30;48.71;103513.84;5007948;28;47883;-76
2022/01/12 11:57:03;;;;;;;;;62.00;47.25;;;;;10.28;48.89;103518.56;5044800;28;45671;-82
2022/01/12 11:59:32;;;;;;;;;57.50;46.75;;;;;10.31;48.84;103515.53;5033947;28;45404;-80
2022/01/12 12:02:08;;;;;;;;;60.25;48.25;;;;;10.02;48.98;103485.28;5052368;28;45890;-80
2022/01/12 12:04:55;;;;;;;;;57.00;46.00;;;;;10.14;49.26;103510.72;5055019;28;46295;-79
2022/01/12 12:07:25;;;;;;;;;58.50;46.50;;;;;10.19;49.15;103511.19;5050458;28;45694;-81
2022/01/12 12:09:56;;;;;;;;;64.00;47.50;;;;;10.16;48.67;103512.31;5050128;28;45760;-80
2022/01/12 12:12:30;;;;;;;;;60.50;47.25;;;;;10.15;49.58;103502.38;5051109;28;45716;-81
2022/01/12 12:14:58;;;;;;;;;60.00;45.50;;;;;10.09;49.61;103505.66;5054808;28;46367;-78
2022/01/12 12:17:27;;;;;;;;;61.25;49.00;;;;;10.08;50.01;103512.16;5021828;28;45783;-80
2022/01/12 12:19:53;;;;;;;;;58.25;47.25;;;;;10.05;50.04;103505.06;5049660;28;45468;-78
2022/01/12 12:22:20;;;;;;;;;63.50;47.75;;;;;10.08;50.15;103495.69;5030971;28;45985;-79
2022/01/12 12:24:53;;;;;;;;;64.25;46.75;;;;;10.12;49.95;103496.28;5052345;28;45596;-80
2022/01/12 12:27:20;;;;;;;;;67.00;49.75;;;;;10.01;49.73;103475.31;5053466;28;46030;-79
2022/01/12 12:29:50;;;;;;;;;55.50;42.00;;;;;10.19;49.46;103478.25;5054102;28;45487;-80
2022/01/12 12:32:18;;;;;;;;;63.75;49.50;;;;;10.27;49.74;103488.53;5052064;28;44944;-80
2022/01/12 12:34:45;;;;;;;;;65.75;49.00;;;;;10.18;49.23;103488.38;5050898;28;45984;-82
2022/01/12 12:37:15;;;;;;;;;57.00;44.00;;;;;10.03;49.81;103440.38;5052065;28;45450;-79
2022/01/12 12:39:43;;;;;;;;;65.00;50.00;;;;;10.28;50.35;103477.44;5048353;28;45378;-80
2022/01/12 12:42:20;;;;;;;;;66.25;49.75;;;;;10.21;49.66;103443.38;5053885;28;46472;-79
2022/01/12 12:44:47;;;;;;;;;65.25;48.00;;;;;10.35;49.90;103467.66;5054532;28;45574;-78
2022/01/12 12:47:19;;;;;;;;;70.50;55.00;;;;;10.33;49.73;103450.50;5045158;28;46062;-78